»·PEaware :: AWE198 KLAS-KSNA

AWE198 :: KLAS-KSNA

FLIGHT INFORMATION

Flight Status: Arrived
Operator:
US Airways
More flights by this operator :: More flights under this callsign
Pilot: Dave P. (45)
Aircraft: BOEING 737-600
(B736)
More flights by this aircraft type
Origin: KLAS Harry Reid Intl
United States
Destination: KSNA John Wayne-Orange Co
United States
More flights between these airports :: More routes between these airports
Route: RADYR2 SLVRR FEYLA DSNEE5
File this flight plan on PilotEdge
Remarks:
Altitude:
(Current/Filed)
28,000ft
Speed:
(Current/Filed)
466kts
Departed: 21-Apr-23 10:01 AM
Arrived: 21-Apr-23 10:44 AM
Distance/Time
Traveled:
197nm/0:43
Distance/Time
To Go:
Arrived

Flight Plot

Page will automatically refresh every two minutes.

Flight plan parsing failed; only flown route is shown


Map Options




Map Legend


Flown Route
Filed Route
Departure Airport
Arrival Airport
Navaid (VOR, NDB)
Fix

Horizontal Profiles

Position Reports

Time Latitude Longitude Heading Altitude Ground
Speed
21-Apr-23 09:36 36.082317 -115.152769 357 2186ft 0kts
21-Apr-23 09:37 36.082317 -115.152769 357 2186ft 0kts
21-Apr-23 09:38 36.082317 -115.152769 357 2186ft 0kts
21-Apr-23 09:39 36.082317 -115.152769 357 2186ft 0kts
21-Apr-23 09:40 36.082317 -115.152769 357 2186ft 0kts
21-Apr-23 09:41 36.082317 -115.152769 357 2186ft 0kts
21-Apr-23 09:42 36.082317 -115.152769 357 2186ft 0kts
21-Apr-23 09:43 36.082317 -115.152769 357 2186ft 0kts
21-Apr-23 09:44 36.082317 -115.152769 357 2186ft 0kts
21-Apr-23 09:46 36.082317 -115.152769 357 2186ft 0kts
21-Apr-23 09:47 36.082317 -115.152769 357 2186ft 0kts
21-Apr-23 09:48 36.082317 -115.152769 357 2186ft 0kts
21-Apr-23 09:49 36.082317 -115.152769 357 2186ft 0kts
21-Apr-23 09:50 36.081805 -115.152732 355 2189ft 2kts
21-Apr-23 09:51 36.081716 -115.153043 102 2187ft 0kts
21-Apr-23 09:52 36.081716 -115.153043 102 2187ft 0kts
21-Apr-23 09:53 36.081287 -115.152560 140 2186ft 12kts
21-Apr-23 09:54 36.079333 -115.152019 179 2187ft 0kts
21-Apr-23 09:55 36.078578 -115.147990 94 2187ft 20kts
21-Apr-23 09:56 36.078274 -115.141166 89 2186ft 21kts
21-Apr-23 09:57 36.078277 -115.133983 90 2191ft 24kts
21-Apr-23 09:58 36.078283 -115.126077 90 2188ft 21kts
21-Apr-23 09:59 36.077381 -115.121338 148 2187ft 0kts
21-Apr-23 10:00 36.076704 -115.121249 179 2190ft 7kts
21-Apr-23 10:01 36.076411 -115.136324 270 2190ft 151kts
21-Apr-23 10:02 36.076725 -115.194362 271 4683ft 203kts
21-Apr-23 10:03 36.052694 -115.267343 207 7129ft 270kts
21-Apr-23 10:04 35.977219 -115.298911 194 8125ft 295kts
21-Apr-23 10:05 35.892330 -115.318812 193 10756ft 350kts
21-Apr-23 10:06 35.792980 -115.342893 193 14051ft 369kts
21-Apr-23 10:07 35.689898 -115.368128 193 17199ft 387kts
21-Apr-23 10:08 35.589299 -115.411140 231 19044ft 387kts
21-Apr-23 10:09 35.517729 -115.511449 231 21590ft 397kts
21-Apr-23 10:10 35.441997 -115.613350 231 24177ft 412kts
21-Apr-23 10:10 35.375766 -115.702398 231 25986ft 425kts
21-Apr-23 10:11 35.295108 -115.810288 231 28131ft 434kts
21-Apr-23 10:13 35.199620 -115.936387 229 28237ft 434kts
21-Apr-23 10:14 35.115205 -116.042155 229 28236ft 434kts
21-Apr-23 10:14 35.045153 -116.130196 229 28240ft 434kts
21-Apr-23 10:15 34.960898 -116.235892 229 28228ft 434kts
21-Apr-23 10:16 34.876569 -116.341392 229 28237ft 434kts
21-Apr-23 10:18 34.780194 -116.464276 229 27652ft 421kts
21-Apr-23 10:19 34.700854 -116.565060 229 25584ft 401kts
21-Apr-23 10:19 34.631137 -116.636568 220 23969ft 391kts
21-Apr-23 10:20 34.547132 -116.717668 221 21772ft 379kts
21-Apr-23 10:21 34.468386 -116.799844 226 19785ft 367kts
21-Apr-23 10:22 34.395815 -116.885407 225 17744ft 360kts
21-Apr-23 10:23 34.323703 -116.968821 225 15533ft 356kts
21-Apr-23 10:24 34.250584 -117.047080 212 13803ft 344kts
21-Apr-23 10:25 34.168265 -117.104459 209 12920ft 344kts
21-Apr-23 10:26 34.081086 -117.150950 204 12454ft 341kts
21-Apr-23 10:27 33.995535 -117.198436 216 11926ft 339kts
21-Apr-23 10:28 33.933939 -117.283763 230 10595ft 327kts
21-Apr-23 10:29 33.877874 -117.362947 230 9862ft 286kts
21-Apr-23 10:30 33.827616 -117.433916 230 8877ft 267kts
21-Apr-23 10:31 33.798146 -117.510733 256 8048ft 251kts
21-Apr-23 10:32 33.799006 -117.594136 273 7996ft 249kts
21-Apr-23 10:33 33.812057 -117.673704 309 7921ft 242kts
21-Apr-23 10:34 33.855012 -117.733473 311 7047ft 234kts
21-Apr-23 10:35 33.900384 -117.788915 340 6018ft 232kts
21-Apr-23 10:36 33.936800 -117.751011 109 5124ft 204kts
21-Apr-23 10:37 33.890034 -117.741833 201 3548ft 193kts
21-Apr-23 10:38 33.841832 -117.765131 201 3003ft 182kts
21-Apr-23 10:39 33.796286 -117.792451 207 2538ft 183kts
21-Apr-23 10:40 33.754134 -117.819148 208 1648ft 153kts
21-Apr-23 10:41 33.717879 -117.842113 207 874ft 135kts
21-Apr-23 10:42 33.685237 -117.862787 208 164ft 131kts
21-Apr-23 10:43 33.669259 -117.871754 128 52ft 11kts
21-Apr-23 10:44 33.669070 -117.871330 102 48ft 2kts
21-Apr-23 10:45 33.672223 -117.868073 27 49ft 16kts
21-Apr-23 10:46 33.675967 -117.865311 30 49ft 15kts
21-Apr-23 10:47 33.676075 -117.864345 118 48ft 0kts
21-Apr-23 10:48 33.676075 -117.864345 118 48ft 0kts
21-Apr-23 10:49 33.676075 -117.864345 118 48ft 0kts

Navigation Log

Ident Type
Flight plan parsing failed, navigation log unavailable